Terminal Aerodrome Forecast
Issued by NWS

Home | Current Version | Previous Version | Text Only | Print | Product List | Glossary On
Versions: 1 2 3 4 5 6 7 8 9 10 11 12 13 14 15 16 17 18
000
FTUS44 KJAN 191723
TAFHKS
TAF
KHKS 191723Z 1918/2018 26012KT P6SM SCT030
     FM200200 20009KT P6SM VCTS BKN035CB OVC090
     FM200600 22009KT P6SM OVC025
     FM201100 23008KT 6SM BR OVC015
     FM201600 30009G15KT P6SM OVC025=

USA.gov is the U.S. government's official web portal to all federal, state and local government web resources and services.